sensor_id;sensor_type;location;lat;lon;timestamp;pressure;altitude;pressure_sealevel;temperature;humidity
79075;BME280;68476;42.710;23.388;2023-12-22T00:01:08;94185.28;;;-2.66;100.00
79075;BME280;68476;42.710;23.388;2023-12-22T00:03:34;94183.16;;;-2.70;100.00
79075;BME280;68476;42.710;23.388;2023-12-22T00:05:59;94176.53;;;-2.74;100.00
79075;BME280;68476;42.710;23.388;2023-12-22T00:08:25;94169.28;;;-2.66;100.00
79075;BME280;68476;42.710;23.388;2023-12-22T00:10:50;94161.94;;;-2.64;100.00
79075;BME280;68476;42.710;23.388;2023-12-22T00:13:16;94158.97;;;-2.69;100.00
79075;BME280;68476;42.710;23.388;2023-12-22T00:15:41;94155.03;;;-2.73;100.00
79075;BME280;68476;42.710;23.388;2023-12-22T00:18:10;94158.75;;;-2.82;100.00
79075;BME280;68476;42.710;23.388;2023-12-22T00:20:36;94161.16;;;-2.87;100.00
79075;BME280;68476;42.710;23.388;2023-12-22T00:23:01;94156.28;;;-2.84;100.00
79075;BME280;68476;42.710;23.388;2023-12-22T00:25:27;94148.47;;;-2.85;100.00
79075;BME280;68476;42.710;23.388;2023-12-22T00:27:53;94145.81;;;-2.85;100.00
79075;BME280;68476;42.710;23.388;2023-12-22T00:30:18;94146.38;;;-2.90;100.00
79075;BME280;68476;42.710;23.388;2023-12-22T00:32:44;94143.84;;;-2.91;100.00
79075;BME280;68476;42.710;23.388;2023-12-22T00:35:09;94139.63;;;-2.86;100.00
79075;BME280;68476;42.710;23.388;2023-12-22T00:37:35;94131.94;;;-2.81;100.00
79075;BME280;68476;42.710;23.388;2023-12-22T00:40:01;94123.59;;;-2.77;100.00
79075;BME280;68476;42.710;23.388;2023-12-22T00:42:27;94114.56;;;-2.76;100.00
79075;BME280;68476;42.710;23.388;2023-12-22T00:44:53;94119.16;;;-2.70;100.00
79075;BME280;68476;42.710;23.388;2023-12-22T00:47:18;94114.63;;;-2.70;100.00
79075;BME280;68476;42.710;23.388;2023-12-22T00:49:44;94124.84;;;-2.58;100.00
79075;BME280;68476;42.710;23.388;2023-12-22T00:52:09;94116.31;;;-2.39;100.00
79075;BME280;68476;42.710;23.388;2023-12-22T00:54:35;94114.66;;;-2.40;100.00
79075;BME280;68476;42.710;23.388;2023-12-22T00:57:00;94124.97;;;-2.37;100.00
79075;BME280;68476;42.710;23.388;2023-12-22T00:59:25;94117.22;;;-2.32;100.00
79075;BME280;68476;42.710;23.388;2023-12-22T01:01:51;94108.22;;;-2.30;100.00
79075;BME280;68476;42.710;23.388;2023-12-22T01:04:16;94104.91;;;-2.33;100.00
79075;BME280;68476;42.710;23.388;2023-12-22T01:06:42;94106.09;;;-2.35;100.00
79075;BME280;68476;42.710;23.388;2023-12-22T01:09:07;94096.97;;;-2.26;100.00
79075;BME280;68476;42.710;23.388;2023-12-22T01:11:33;94108.66;;;-2.27;100.00
79075;BME280;68476;42.710;23.388;2023-12-22T01:13:58;94096.78;;;-2.39;100.00
79075;BME280;68476;42.710;23.388;2023-12-22T01:16:24;94101.22;;;-2.32;100.00
79075;BME280;68476;42.710;23.388;2023-12-22T01:18:50;94096.25;;;-2.35;100.00
79075;BME280;68476;42.710;23.388;2023-12-22T01:21:18;94093.22;;;-2.32;100.00
79075;BME280;68476;42.710;23.388;2023-12-22T01:23:44;94096.06;;;-2.33;100.00
79075;BME280;68476;42.710;23.388;2023-12-22T01:26:09;94085.94;;;-2.23;100.00
79075;BME280;68476;42.710;23.388;2023-12-22T01:28:35;94092.66;;;-2.27;100.00
79075;BME280;68476;42.710;23.388;2023-12-22T01:31:01;94103.31;;;-2.27;100.00
79075;BME280;68476;42.710;23.388;2023-12-22T01:33:26;94086.38;;;-2.19;100.00
79075;BME280;68476;42.710;23.388;2023-12-22T01:35:52;94076.28;;;-2.24;100.00
79075;BME280;68476;42.710;23.388;2023-12-22T01:38:18;94072.16;;;-2.26;100.00
79075;BME280;68476;42.710;23.388;2023-12-22T01:40:43;94074.41;;;-2.23;100.00
79075;BME280;68476;42.710;23.388;2023-12-22T01:43:09;94068.81;;;-2.28;100.00
79075;BME280;68476;42.710;23.388;2023-12-22T01:45:34;94061.75;;;-2.36;100.00
79075;BME280;68476;42.710;23.388;2023-12-22T01:48:00;94057.63;;;-2.39;100.00
79075;BME280;68476;42.710;23.388;2023-12-22T01:50:26;94054.31;;;-2.41;100.00
79075;BME280;68476;42.710;23.388;2023-12-22T01:52:52;94059.28;;;-2.38;100.00
79075;BME280;68476;42.710;23.388;2023-12-22T01:55:18;94067.44;;;-2.24;100.00
79075;BME280;68476;42.710;23.388;2023-12-22T01:57:44;94067.69;;;-2.19;100.00
79075;BME280;68476;42.710;23.388;2023-12-22T02:00:12;94072.50;;;-2.29;100.00
79075;BME280;68476;42.710;23.388;2023-12-22T02:02:38;94060.75;;;-2.35;100.00
79075;BME280;68476;42.710;23.388;2023-12-22T02:05:04;94058.16;;;-2.28;100.00
79075;BME280;68476;42.710;23.388;2023-12-22T02:07:31;94059.44;;;-2.24;100.00
79075;BME280;68476;42.710;23.388;2023-12-22T02:09:57;94050.63;;;-2.03;100.00
79075;BME280;68476;42.710;23.388;2023-12-22T02:12:22;94052.28;;;-2.02;100.00
79075;BME280;68476;42.710;23.388;2023-12-22T02:14:48;94053.88;;;-2.08;100.00
79075;BME280;68476;42.710;23.388;2023-12-22T02:17:22;94059.97;;;-2.14;100.00
79075;BME280;68476;42.710;23.388;2023-12-22T02:19:50;94054.19;;;-2.18;100.00
79075;BME280;68476;42.710;23.388;2023-12-22T02:22:16;94052.97;;;-2.15;100.00
79075;BME280;68476;42.710;23.388;2023-12-22T02:24:42;94049.00;;;-2.19;100.00
79075;BME280;68476;42.710;23.388;2023-12-22T02:27:36;94047.19;;;-2.19;100.00
79075;BME280;68476;42.710;23.388;2023-12-22T02:30:11;94050.94;;;-2.13;100.00
79075;BME280;68476;42.710;23.388;2023-12-22T02:32:43;94036.97;;;-2.15;100.00
79075;BME280;68476;42.710;23.388;2023-12-22T02:35:19;94038.06;;;-2.09;100.00
79075;BME280;68476;42.710;23.388;2023-12-22T02:37:48;94038.38;;;-1.97;100.00
79075;BME280;68476;42.710;23.388;2023-12-22T02:40:15;94043.72;;;-1.97;100.00
79075;BME280;68476;42.710;23.388;2023-12-22T02:42:41;94039.78;;;-2.02;100.00
79075;BME280;68476;42.710;23.388;2023-12-22T02:45:13;94030.56;;;-1.99;100.00
79075;BME280;68476;42.710;23.388;2023-12-22T02:47:39;94025.41;;;-2.00;100.00
79075;BME280;68476;42.710;23.388;2023-12-22T02:50:06;94021.91;;;-2.01;100.00
79075;BME280;68476;42.710;23.388;2023-12-22T02:52:31;94019.94;;;-2.14;100.00
79075;BME280;68476;42.710;23.388;2023-12-22T02:54:58;94014.75;;;-2.15;100.00
79075;BME280;68476;42.710;23.388;2023-12-22T02:57:23;94014.84;;;-2.09;100.00
79075;BME280;68476;42.710;23.388;2023-12-22T02:59:49;94021.84;;;-2.08;100.00
79075;BME280;68476;42.710;23.388;2023-12-22T03:02:14;94033.97;;;-2.05;100.00
79075;BME280;68476;42.710;23.388;2023-12-22T03:04:40;94017.50;;;-1.87;100.00
79075;BME280;68476;42.710;23.388;2023-12-22T03:07:05;94008.91;;;-1.89;100.00
79075;BME280;68476;42.710;23.388;2023-12-22T03:09:31;94010.78;;;-1.83;100.00
79075;BME280;68476;42.710;23.388;2023-12-22T03:11:57;94009.47;;;-1.72;100.00
79075;BME280;68476;42.710;23.388;2023-12-22T03:14:28;94008.31;;;-1.63;100.00
79075;BME280;68476;42.710;23.388;2023-12-22T03:16:54;94004.78;;;-1.63;100.00
79075;BME280;68476;42.710;23.388;2023-12-22T03:19:19;94017.53;;;-1.65;100.00
79075;BME280;68476;42.710;23.388;2023-12-22T03:21:45;94011.28;;;-1.51;100.00
79075;BME280;68476;42.710;23.388;2023-12-22T03:24:10;94012.81;;;-1.42;100.00
79075;BME280;68476;42.710;23.388;2023-12-22T03:26:35;94009.16;;;-1.34;100.00
79075;BME280;68476;42.710;23.388;2023-12-22T03:29:01;94007.59;;;-1.21;100.00
79075;BME280;68476;42.710;23.388;2023-12-22T03:31:26;93999.97;;;-1.53;100.00
79075;BME280;68476;42.710;23.388;2023-12-22T03:33:52;94006.16;;;-1.24;100.00
79075;BME280;68476;42.710;23.388;2023-12-22T03:36:17;94006.41;;;-1.19;100.00
79075;BME280;68476;42.710;23.388;2023-12-22T03:38:43;94003.84;;;-1.27;100.00
79075;BME280;68476;42.710;23.388;2023-12-22T03:41:12;94002.84;;;-1.26;100.00
79075;BME280;68476;42.710;23.388;2023-12-22T03:43:37;94005.28;;;-1.31;100.00
79075;BME280;68476;42.710;23.388;2023-12-22T03:46:03;94000.78;;;-1.24;100.00
79075;BME280;68476;42.710;23.388;2023-12-22T03:48:28;94001.81;;;-1.25;100.00
79075;BME280;68476;42.710;23.388;2023-12-22T03:50:53;93995.72;;;-1.41;100.00
79075;BME280;68476;42.710;23.388;2023-12-22T03:53:19;93994.97;;;-1.34;100.00
79075;BME280;68476;42.710;23.388;2023-12-22T03:55:45;93998.13;;;-1.24;100.00
79075;BME280;68476;42.710;23.388;2023-12-22T03:58:10;93999.13;;;-1.25;100.00
79075;BME280;68476;42.710;23.388;2023-12-22T04:00:36;93999.97;;;-1.25;100.00
79075;BME280;68476;42.710;23.388;2023-12-22T04:03:01;93992.50;;;-1.36;100.00
79075;BME280;68476;42.710;23.388;2023-12-22T04:05:27;93997.50;;;-1.26;100.00
79075;BME280;68476;42.710;23.388;2023-12-22T04:07:53;93990.91;;;-1.30;100.00
79075;BME280;68476;42.710;23.388;2023-12-22T04:10:19;93992.81;;;-1.17;100.00
79075;BME280;68476;42.710;23.388;2023-12-22T04:12:44;93997.50;;;-1.26;100.00
79075;BME280;68476;42.710;23.388;2023-12-22T04:15:10;93985.13;;;-1.27;100.00
79075;BME280;68476;42.710;23.388;2023-12-22T04:17:35;93993.41;;;-1.22;100.00
79075;BME280;68476;42.710;23.388;2023-12-22T04:20:01;93999.97;;;-1.25;100.00
79075;BME280;68476;42.710;23.388;2023-12-22T04:22:27;93994.81;;;-1.26;100.00
79075;BME280;68476;42.710;23.388;2023-12-22T04:24:52;93997.09;;;-1.23;100.00
79075;BME280;68476;42.710;23.388;2023-12-22T04:27:18;93983.91;;;-1.31;100.00
79075;BME280;68476;42.710;23.388;2023-12-22T04:29:43;93985.88;;;-1.12;100.00
79075;BME280;68476;42.710;23.388;2023-12-22T04:32:09;93989.66;;;-0.99;100.00
79075;BME280;68476;42.710;23.388;2023-12-22T04:34:34;93984.53;;;-0.94;100.00
79075;BME280;68476;42.710;23.388;2023-12-22T04:37:00;93982.00;;;-1.02;100.00
79075;BME280;68476;42.710;23.388;2023-12-22T04:39:25;93976.03;;;-1.04;100.00
79075;BME280;68476;42.710;23.388;2023-12-22T04:41:51;93976.53;;;-0.87;100.00
79075;BME280;68476;42.710;23.388;2023-12-22T04:44:16;93971.84;;;-0.79;100.00
79075;BME280;68476;42.710;23.388;2023-12-22T04:46:42;93966.56;;;-0.65;100.00
79075;BME280;68476;42.710;23.388;2023-12-22T04:49:07;93970.72;;;-0.56;100.00
79075;BME280;68476;42.710;23.388;2023-12-22T04:51:33;93971.34;;;-0.54;100.00
79075;BME280;68476;42.710;23.388;2023-12-22T04:53:58;93971.28;;;-0.67;100.00
79075;BME280;68476;42.710;23.388;2023-12-22T04:56:23;93972.63;;;-0.50;100.00
79075;BME280;68476;42.710;23.388;2023-12-22T04:58:49;93976.31;;;-0.51;100.00
79075;BME280;68476;42.710;23.388;2023-12-22T05:01:15;93972.16;;;-0.60;100.00
79075;BME280;68476;42.710;23.388;2023-12-22T05:03:41;93963.66;;;-0.70;100.00
79075;BME280;68476;42.710;23.388;2023-12-22T05:06:07;93955.81;;;-0.79;100.00
79075;BME280;68476;42.710;23.388;2023-12-22T05:08:33;93960.63;;;-0.60;100.00
79075;BME280;68476;42.710;23.388;2023-12-22T05:10:59;93945.63;;;-0.55;100.00
79075;BME280;68476;42.710;23.388;2023-12-22T05:13:25;93953.00;;;-0.57;100.00
79075;BME280;68476;42.710;23.388;2023-12-22T05:15:50;93951.59;;;-0.53;100.00
79075;BME280;68476;42.710;23.388;2023-12-22T05:18:16;93956.38;;;-0.41;100.00
79075;BME280;68476;42.710;23.388;2023-12-22T05:20:41;93962.53;;;-0.48;100.00
79075;BME280;68476;42.710;23.388;2023-12-22T05:23:08;93967.28;;;-0.43;100.00
79075;BME280;68476;42.710;23.388;2023-12-22T05:25:34;93961.09;;;-0.43;100.00
79075;BME280;68476;42.710;23.388;2023-12-22T05:27:59;93953.94;;;-0.36;100.00
79075;BME280;68476;42.710;23.388;2023-12-22T05:30:25;93955.56;;;-0.42;100.00
79075;BME280;68476;42.710;23.388;2023-12-22T05:32:50;93960.69;;;-0.47;100.00
79075;BME280;68476;42.710;23.388;2023-12-22T05:35:16;93969.72;;;-0.48;100.00
79075;BME280;68476;42.710;23.388;2023-12-22T05:37:41;93963.00;;;-0.37;100.00
79075;BME280;68476;42.710;23.388;2023-12-22T05:40:07;93969.19;;;-0.30;100.00
79075;BME280;68476;42.710;23.388;2023-12-22T05:42:33;93953.53;;;-0.26;100.00
79075;BME280;68476;42.710;23.388;2023-12-22T05:44:58;93955.41;;;-0.27;100.00
79075;BME280;68476;42.710;23.388;2023-12-22T05:47:24;93958.88;;;-0.26;100.00
79075;BME280;68476;42.710;23.388;2023-12-22T05:49:49;93963.00;;;-0.30;100.00
79075;BME280;68476;42.710;23.388;2023-12-22T05:52:15;93956.19;;;-0.33;100.00
79075;BME280;68476;42.710;23.388;2023-12-22T05:54:40;93960.16;;;-0.16;100.00
79075;BME280;68476;42.710;23.388;2023-12-22T05:57:06;93954.00;;;-0.03;100.00
79075;BME280;68476;42.710;23.388;2023-12-22T05:59:33;93954.84;;;0.05;100.00
79075;BME280;68476;42.710;23.388;2023-12-22T06:01:59;93946.81;;;-0.02;100.00
79075;BME280;68476;42.710;23.388;2023-12-22T06:04:25;93955.25;;;-0.05;100.00
79075;BME280;68476;42.710;23.388;2023-12-22T06:06:51;93955.25;;;-0.05;100.00
79075;BME280;68476;42.710;23.388;2023-12-22T06:09:16;93958.56;;;0.04;100.00
79075;BME280;68476;42.710;23.388;2023-12-22T06:11:44;93958.75;;;0.02;100.00
79075;BME280;68476;42.710;23.388;2023-12-22T06:14:10;93955.28;;;0.08;100.00
79075;BME280;68476;42.710;23.388;2023-12-22T06:16:35;93951.97;;;0.06;100.00
79075;BME280;68476;42.710;23.388;2023-12-22T06:19:00;93955.91;;;0.17;100.00
79075;BME280;68476;42.710;23.388;2023-12-22T06:21:26;93951.78;;;0.28;100.00
79075;BME280;68476;42.710;23.388;2023-12-22T06:23:51;93957.16;;;0.35;100.00
79075;BME280;68476;42.710;23.388;2023-12-22T06:26:17;93960.06;;;0.47;100.00
79075;BME280;68476;42.710;23.388;2023-12-22T06:28:43;93955.09;;;0.30;100.00
79075;BME280;68476;42.710;23.388;2023-12-22T06:31:17;93953.84;;;0.26;100.00
79075;BME280;68476;42.710;23.388;2023-12-22T06:33:44;93955.88;;;0.24;100.00
79075;BME280;68476;42.710;23.388;2023-12-22T06:36:20;93961.06;;;0.19;100.00
79075;BME280;68476;42.710;23.388;2023-12-22T06:38:47;93972.41;;;0.34;100.00
79075;BME280;68476;42.710;23.388;2023-12-22T06:41:23;93970.53;;;0.28;100.00
79075;BME280;68476;42.710;23.388;2023-12-22T06:43:49;93978.19;;;0.31;100.00
79075;BME280;68476;42.710;23.388;2023-12-22T06:46:16;93976.72;;;0.49;100.00
79075;BME280;68476;42.710;23.388;2023-12-22T06:48:43;93975.28;;;0.59;100.00
79075;BME280;68476;42.710;23.388;2023-12-22T06:51:26;93973.44;;;0.53;100.00
79075;BME280;68476;42.710;23.388;2023-12-22T06:53:52;93979.22;;;0.64;100.00
79075;BME280;68476;42.710;23.388;2023-12-22T06:56:19;93975.09;;;0.61;100.00
79075;BME280;68476;42.710;23.388;2023-12-22T06:58:45;93972.84;;;0.65;100.00
79075;BME280;68476;42.710;23.388;2023-12-22T07:03:54;93971.59;;;0.74;100.00
79075;BME280;68476;42.710;23.388;2023-12-22T07:06:21;93973.03;;;0.76;100.00
79075;BME280;68476;42.710;23.388;2023-12-22T07:11:48;93982.50;;;0.59;100.00
79075;BME280;68476;42.710;23.388;2023-12-22T07:14:15;93980.25;;;0.69;100.00
79075;BME280;68476;42.710;23.388;2023-12-22T07:16:41;93974.03;;;0.82;100.00
79075;BME280;68476;42.710;23.388;2023-12-22T07:19:08;93979.81;;;0.86;100.00
79075;BME280;68476;42.710;23.388;2023-12-22T07:21:33;93986.19;;;0.98;100.00
79075;BME280;68476;42.710;23.388;2023-12-22T07:23:59;93988.69;;;1.00;100.00
79075;BME280;68476;42.710;23.388;2023-12-22T07:26:26;93994.84;;;1.14;100.00
79075;BME280;68476;42.710;23.388;2023-12-22T07:28:54;93991.50;;;1.32;100.00
79075;BME280;68476;42.710;23.388;2023-12-22T07:31:20;93991.28;;;1.33;100.00
79075;BME280;68476;42.710;23.388;2023-12-22T07:33:45;93989.47;;;1.27;100.00
79075;BME280;68476;42.710;23.388;2023-12-22T07:36:11;93997.91;;;1.37;100.00
79075;BME280;68476;42.710;23.388;2023-12-22T07:38:37;93987.34;;;1.43;100.00
79075;BME280;68476;42.710;23.388;2023-12-22T07:41:04;93983.44;;;1.38;100.00
79075;BME280;68476;42.710;23.388;2023-12-22T07:43:30;93997.06;;;1.37;100.00
79075;BME280;68476;42.710;23.388;2023-12-22T07:45:55;94004.31;;;1.36;100.00
79075;BME280;68476;42.710;23.388;2023-12-22T07:48:21;94002.19;;;1.52;100.00
79075;BME280;68476;42.710;23.388;2023-12-22T07:50:46;93994.16;;;1.45;100.00
79075;BME280;68476;42.710;23.388;2023-12-22T07:53:12;94009.66;;;1.43;100.00
79075;BME280;68476;42.710;23.388;2023-12-22T07:55:38;94016.22;;;1.47;100.00
79075;BME280;68476;42.710;23.388;2023-12-22T07:58:04;94020.16;;;1.51;100.00
79075;BME280;68476;42.710;23.388;2023-12-22T08:00:29;94025.34;;;1.46;100.00
79075;BME280;68476;42.710;23.388;2023-12-22T08:02:55;94026.53;;;1.57;100.00
79075;BME280;68476;42.710;23.388;2023-12-22T08:05:20;94024.09;;;1.49;100.00
79075;BME280;68476;42.710;23.388;2023-12-22T08:07:46;94026.81;;;1.35;100.00
79075;BME280;68476;42.710;23.388;2023-12-22T08:10:12;94027.19;;;1.46;100.00
79075;BME280;68476;42.710;23.388;2023-12-22T08:12:37;94035.00;;;1.61;100.00
79075;BME280;68476;42.710;23.388;2023-12-22T08:15:03;94034.81;;;1.56;100.00
79075;BME280;68476;42.710;23.388;2023-12-22T08:17:29;94041.63;;;1.51;100.00
79075;BME280;68476;42.710;23.388;2023-12-22T08:19:54;94044.06;;;1.66;100.00
79075;BME280;68476;42.710;23.388;2023-12-22T08:22:20;94045.06;;;1.72;100.00
79075;BME280;68476;42.710;23.388;2023-12-22T08:24:45;94044.50;;;1.70;100.00
79075;BME280;68476;42.710;23.388;2023-12-22T08:27:11;94045.50;;;1.76;100.00
79075;BME280;68476;42.710;23.388;2023-12-22T08:29:36;94050.06;;;1.62;100.00
79075;BME280;68476;42.710;23.388;2023-12-22T08:32:02;94050.06;;;1.68;100.00
79075;BME280;68476;42.710;23.388;2023-12-22T08:34:27;94051.06;;;1.81;100.00
79075;BME280;68476;42.710;23.388;2023-12-22T08:36:53;94045.66;;;1.88;100.00
79075;BME280;68476;42.710;23.388;2023-12-22T08:39:19;94052.69;;;1.89;100.00
79075;BME280;68476;42.710;23.388;2023-12-22T08:41:45;94056.66;;;1.73;100.00
79075;BME280;68476;42.710;23.388;2023-12-22T08:44:11;94057.06;;;1.69;100.00
79075;BME280;68476;42.710;23.388;2023-12-22T08:46:36;94045.69;;;1.81;100.00
79075;BME280;68476;42.710;23.388;2023-12-22T08:49:05;94053.06;;;1.92;100.00
79075;BME280;68476;42.710;23.388;2023-12-22T08:51:31;94052.03;;;1.93;100.00
79075;BME280;68476;42.710;23.388;2023-12-22T08:53:58;94055.72;;;2.06;100.00
79075;BME280;68476;42.710;23.388;2023-12-22T08:56:23;94055.34;;;1.95;100.00
79075;BME280;68476;42.710;23.388;2023-12-22T08:58:51;94042.69;;;2.03;100.00
79075;BME280;68476;42.710;23.388;2023-12-22T09:01:18;94043.19;;;2.31;100.00
79075;BME280;68476;42.710;23.388;2023-12-22T09:03:44;94045.91;;;2.25;100.00
79075;BME280;68476;42.710;23.388;2023-12-22T09:06:18;94057.41;;;2.39;100.00
79075;BME280;68476;42.710;23.388;2023-12-22T09:08:44;94062.63;;;2.34;100.00
79075;BME280;68476;42.710;23.388;2023-12-22T09:11:15;94064.84;;;2.37;100.00
79075;BME280;68476;42.710;23.388;2023-12-22T09:13:41;94065.41;;;2.52;100.00
79075;BME280;68476;42.710;23.388;2023-12-22T09:16:07;94061.31;;;2.43;100.00
79075;BME280;68476;42.710;23.388;2023-12-22T09:18:33;94056.69;;;2.57;100.00
79075;BME280;68476;42.710;23.388;2023-12-22T09:20:59;94067.03;;;2.60;100.00
79075;BME280;68476;42.710;23.388;2023-12-22T09:23:24;94058.09;;;2.59;100.00
79075;BME280;68476;42.710;23.388;2023-12-22T09:25:50;94061.75;;;2.72;100.00
79075;BME280;68476;42.710;23.388;2023-12-22T09:28:15;94062.75;;;2.45;100.00
79075;BME280;68476;42.710;23.388;2023-12-22T09:30:41;94061.97;;;2.70;100.00
79075;BME280;68476;42.710;23.388;2023-12-22T09:33:08;94055.34;;;2.73;100.00
79075;BME280;68476;42.710;23.388;2023-12-22T09:35:34;94064.41;;;2.78;100.00
79075;BME280;68476;42.710;23.388;2023-12-22T09:38:00;94057.78;;;2.81;100.00
79075;BME280;68476;42.710;23.388;2023-12-22T09:40:26;94047.50;;;2.97;100.00
79075;BME280;68476;42.710;23.388;2023-12-22T09:42:54;94058.03;;;3.05;100.00
79075;BME280;68476;42.710;23.388;2023-12-22T09:45:21;94053.16;;;3.14;100.00
79075;BME280;68476;42.710;23.388;2023-12-22T09:47:48;94063.63;;;3.29;100.00
79075;BME280;68476;42.710;23.388;2023-12-22T09:50:14;94058.13;;;3.17;100.00
79075;BME280;68476;42.710;23.388;2023-12-22T09:52:42;94052.69;;;3.23;100.00
79075;BME280;68476;42.710;23.388;2023-12-22T09:55:09;94056.44;;;3.41;100.00
79075;BME280;68476;42.710;23.388;2023-12-22T09:57:37;94039.03;;;3.62;100.00
79075;BME280;68476;42.710;23.388;2023-12-22T10:00:06;94036.88;;;3.71;100.00
79075;BME280;68476;42.710;23.388;2023-12-22T10:02:33;94028.34;;;3.55;100.00
79075;BME280;68476;42.710;23.388;2023-12-22T10:05:00;94016.47;;;3.82;100.00
79075;BME280;68476;42.710;23.388;2023-12-22T10:07:26;94039.16;;;3.74;100.00
79075;BME280;68476;42.710;23.388;2023-12-22T10:09:52;94038.44;;;3.60;100.00
79075;BME280;68476;42.710;23.388;2023-12-22T10:12:21;94032.13;;;3.48;100.00
79075;BME280;68476;42.710;23.388;2023-12-22T10:14:47;94026.25;;;3.58;100.00
79075;BME280;68476;42.710;23.388;2023-12-22T10:17:14;94017.88;;;3.66;100.00
79075;BME280;68476;42.710;23.388;2023-12-22T10:19:40;94016.75;;;3.55;100.00
79075;BME280;68476;42.710;23.388;2023-12-22T10:22:06;94016.88;;;3.60;100.00
79075;BME280;68476;42.710;23.388;2023-12-22T10:24:41;94015.16;;;3.66;100.00
79075;BME280;68476;42.710;23.388;2023-12-22T10:27:13;94000.59;;;3.92;100.00
79075;BME280;68476;42.710;23.388;2023-12-22T10:29:39;93993.44;;;4.16;100.00
79075;BME280;68476;42.710;23.388;2023-12-22T10:32:07;93987.53;;;4.38;100.00
79075;BME280;68476;42.710;23.388;2023-12-22T10:34:34;93971.88;;;5.90;100.00
79075;BME280;68476;42.710;23.388;2023-12-22T10:37:00;93970.78;;;6.43;100.00
79075;BME280;68476;42.710;23.388;2023-12-22T10:39:30;93973.50;;;6.60;100.00
79075;BME280;68476;42.710;23.388;2023-12-22T10:41:56;93974.88;;;5.64;100.00
79075;BME280;68476;42.710;23.388;2023-12-22T10:44:26;93964.09;;;5.40;100.00
79075;BME280;68476;42.710;23.388;2023-12-22T10:46:52;93956.41;;;6.14;100.00
79075;BME280;68476;42.710;23.388;2023-12-22T10:49:20;93930.47;;;6.30;100.00
79075;BME280;68476;42.710;23.388;2023-12-22T10:51:45;93933.53;;;6.34;100.00
79075;BME280;68476;42.710;23.388;2023-12-22T10:54:11;93926.53;;;7.57;100.00
79075;BME280;68476;42.710;23.388;2023-12-22T10:56:36;93937.66;;;7.38;100.00
79075;BME280;68476;42.710;23.388;2023-12-22T10:59:02;93936.19;;;6.62;100.00
79075;BME280;68476;42.710;23.388;2023-12-22T11:01:29;93928.56;;;6.13;100.00
79075;BME280;68476;42.710;23.388;2023-12-22T11:03:58;93926.38;;;6.56;100.00
79075;BME280;68476;42.710;23.388;2023-12-22T11:06:27;93928.78;;;6.41;100.00
79075;BME280;68476;42.710;23.388;2023-12-22T11:08:53;93932.31;;;6.12;100.00
79075;BME280;68476;42.710;23.388;2023-12-22T11:11:31;93920.50;;;6.30;100.00
79075;BME280;68476;42.710;23.388;2023-12-22T11:13:59;93916.09;;;6.12;100.00
79075;BME280;68476;42.710;23.388;2023-12-22T11:16:27;93896.34;;;6.92;100.00
79075;BME280;68476;42.710;23.388;2023-12-22T11:18:53;93889.59;;;7.73;100.00
79075;BME280;68476;42.710;23.388;2023-12-22T11:21:24;93880.28;;;8.13;100.00
79075;BME280;68476;42.710;23.388;2023-12-22T11:23:53;93886.56;;;7.92;100.00
79075;BME280;68476;42.710;23.388;2023-12-22T11:26:20;93891.94;;;7.64;100.00
79075;BME280;68476;42.710;23.388;2023-12-22T11:28:48;93900.13;;;7.69;100.00
79075;BME280;68476;42.710;23.388;2023-12-22T11:31:14;93892.22;;;9.91;100.00
79075;BME280;68476;42.710;23.388;2023-12-22T11:33:49;93891.34;;;10.59;96.18
79075;BME280;68476;42.710;23.388;2023-12-22T11:36:16;93901.63;;;9.24;100.00
79075;BME280;68476;42.710;23.388;2023-12-22T11:38:43;93899.22;;;10.45;98.01
79075;BME280;68476;42.710;23.388;2023-12-22T11:41:10;93918.13;;;8.80;100.00
79075;BME280;68476;42.710;23.388;2023-12-22T11:43:38;93920.00;;;7.75;100.00
79075;BME280;68476;42.710;23.388;2023-12-22T11:46:05;93935.56;;;6.89;100.00
79075;BME280;68476;42.710;23.388;2023-12-22T11:48:31;93946.81;;;6.81;100.00
79075;BME280;68476;42.710;23.388;2023-12-22T11:50:56;93931.91;;;6.32;100.00
79075;BME280;68476;42.710;23.388;2023-12-22T11:53:23;93937.53;;;6.31;100.00
79075;BME280;68476;42.710;23.388;2023-12-22T11:56:03;93929.66;;;6.00;100.00
79075;BME280;68476;42.710;23.388;2023-12-22T12:01:10;93912.16;;;5.91;100.00
79075;BME280;68476;42.710;23.388;2023-12-22T12:03:37;93911.66;;;6.06;100.00
79075;BME280;68476;42.710;23.388;2023-12-22T12:06:30;93912.16;;;6.03;100.00
79075;BME280;68476;42.710;23.388;2023-12-22T12:08:57;93921.84;;;6.16;100.00
79075;BME280;68476;42.710;23.388;2023-12-22T12:11:25;93923.88;;;6.09;100.00
79075;BME280;68476;42.710;23.388;2023-12-22T12:14:12;93920.19;;;6.15;100.00
79075;BME280;68476;42.710;23.388;2023-12-22T12:16:40;93912.81;;;6.10;100.00
79075;BME280;68476;42.710;23.388;2023-12-22T12:19:09;93922.69;;;6.16;100.00
79075;BME280;68476;42.710;23.388;2023-12-22T12:21:35;93921.59;;;6.17;100.00
79075;BME280;68476;42.710;23.388;2023-12-22T12:24:00;93916.53;;;6.21;100.00
79075;BME280;68476;42.710;23.388;2023-12-22T12:26:27;93919.53;;;6.08;100.00
79075;BME280;68476;42.710;23.388;2023-12-22T12:28:52;93896.97;;;6.02;100.00
79075;BME280;68476;42.710;23.388;2023-12-22T12:31:18;93888.41;;;5.93;100.00
79075;BME280;68476;42.710;23.388;2023-12-22T12:33:44;93888.97;;;5.95;100.00
79075;BME280;68476;42.710;23.388;2023-12-22T12:36:11;93896.50;;;5.93;100.00
79075;BME280;68476;42.710;23.388;2023-12-22T12:38:53;93889.94;;;5.89;100.00
79075;BME280;68476;42.710;23.388;2023-12-22T12:41:46;93882.31;;;5.86;100.00
79075;BME280;68476;42.710;23.388;2023-12-22T12:44:11;93874.69;;;5.83;100.00
79075;BME280;68476;42.710;23.388;2023-12-22T12:46:38;93880.44;;;5.86;100.00
79075;BME280;68476;42.710;23.388;2023-12-22T12:49:08;93876.09;;;5.85;100.00
79075;BME280;68476;42.710;23.388;2023-12-22T12:51:38;93860.44;;;5.88;100.00